createdAt,value
2023-05-17T00:01:59.070Z,49.90
2023-05-17T00:04:29.434Z,48.76
2023-05-17T00:07:02.724Z,50.75
2023-05-17T00:09:33.267Z,51.08
2023-05-17T00:12:04.034Z,51.08
2023-05-17T00:14:35.161Z,51.35
2023-05-17T00:17:06.652Z,51.96
2023-05-17T00:19:37.406Z,52.07
2023-05-17T00:22:07.735Z,52.07
2023-05-17T00:24:38.403Z,50.87
2023-05-17T00:27:08.751Z,49.03
2023-05-17T00:29:39.441Z,51.31
2023-05-17T00:32:09.903Z,51.31
2023-05-17T00:34:40.637Z,52.62
2023-05-17T00:37:10.963Z,53.19
2023-05-17T00:39:41.378Z,53.19
2023-05-17T00:42:12.375Z,53.16
2023-05-17T00:44:42.894Z,55.04
2023-05-17T00:47:13.385Z,55.04
2023-05-17T00:49:43.896Z,55.17
2023-05-17T00:52:17.723Z,54.59
2023-05-17T00:54:48.395Z,55.91
2023-05-17T00:57:19.086Z,55.91
2023-05-17T00:59:51.773Z,55.16
2023-05-17T01:02:22.809Z,53.83
2023-05-17T01:04:53.747Z,53.83
2023-05-17T01:07:24.424Z,54.81
2023-05-17T01:09:55.181Z,54.81
2023-05-17T01:12:40.234Z,55.98
2023-05-17T01:15:19.795Z,54.93
2023-05-17T01:18:01.993Z,56.50
2023-05-17T01:20:40.945Z,58.10
2023-05-17T01:23:41.235Z,56.63
2023-05-17T01:26:20.463Z,58.45
2023-05-17T01:28:53.699Z,56.39
2023-05-17T01:31:25.243Z,56.39
2023-05-17T01:33:55.988Z,56.98
2023-05-17T01:36:26.421Z,55.55
2023-05-17T01:38:56.771Z,55.60
2023-05-17T01:41:45.203Z,56.22
2023-05-17T01:44:45.528Z,56.76
2023-05-17T01:47:39.597Z,56.76
2023-05-17T01:50:12.932Z,54.76
2023-05-17T01:55:55.441Z,54.85
2023-05-17T01:58:28.565Z,50.46
2023-05-17T02:01:01.573Z,50.46
2023-05-17T02:03:32.227Z,51.02
2023-05-17T02:06:02.667Z,52.09
2023-05-17T02:08:33.395Z,51.67
2023-05-17T02:11:03.872Z,51.90
2023-05-17T02:13:34.346Z,53.57
2023-05-17T02:16:05.011Z,54.34
2023-05-17T02:18:35.828Z,54.34
2023-05-17T02:21:06.651Z,53.66
2023-05-17T02:23:36.999Z,54.06
2023-05-17T02:26:07.315Z,53.59
2023-05-17T02:28:37.903Z,53.82
2023-05-17T02:31:09.211Z,52.62
2023-05-17T02:33:39.777Z,52.86
2023-05-17T02:36:10.391Z,50.57
2023-05-17T02:38:40.731Z,50.57
2023-05-17T02:41:11.130Z,49.37
2023-05-17T02:43:41.779Z,49.37
2023-05-17T02:46:12.168Z,49.20
2023-05-17T02:48:42.855Z,49.20
2023-05-17T02:51:13.235Z,49.13
2023-05-17T02:53:43.882Z,49.13
2023-05-17T02:56:15.496Z,50.46
2023-05-17T02:58:45.817Z,50.46
2023-05-17T03:01:16.222Z,49.47
2023-05-17T03:03:46.757Z,49.42
2023-05-17T03:06:16.980Z,49.42
2023-05-17T03:08:47.395Z,49.92
2023-05-17T03:11:17.938Z,49.97
2023-05-17T03:13:48.514Z,49.97
2023-05-17T03:16:20.668Z,49.98
2023-05-17T03:18:51.146Z,50.22
2023-05-17T03:21:21.861Z,50.83
2023-05-17T03:23:52.841Z,50.77
2023-05-17T03:26:23.494Z,51.74
2023-05-17T03:28:54.062Z,51.48
2023-05-17T03:31:27.965Z,52.45
2023-05-17T03:33:58.372Z,53.42
2023-05-17T03:36:28.906Z,54.43
2023-05-17T03:38:59.437Z,54.43
2023-05-17T03:41:30.109Z,53.34
2023-05-17T03:44:00.725Z,55.01
2023-05-17T03:46:31.422Z,55.01
2023-05-17T03:49:02.000Z,55.16
2023-05-17T03:51:32.275Z,54.39
2023-05-17T03:54:02.856Z,56.12
2023-05-17T03:56:33.635Z,56.12
2023-05-17T03:59:03.969Z,56.47
2023-05-17T04:01:34.823Z,56.47
2023-05-17T04:04:05.439Z,56.72
2023-05-17T04:06:36.319Z,56.72
2023-05-17T04:09:06.900Z,57.33
2023-05-17T04:11:37.624Z,57.33
2023-05-17T04:14:08.193Z,58.22
2023-05-17T04:16:38.868Z,58.22
2023-05-17T04:19:09.731Z,58.35
2023-05-17T04:21:40.488Z,58.68
2023-05-17T04:24:11.172Z,58.77
2023-05-17T04:26:41.744Z,59.48
2023-05-17T04:29:12.376Z,59.33
2023-05-17T04:31:43.085Z,59.84
2023-05-17T04:34:13.660Z,59.84
2023-05-17T04:36:44.334Z,60.35
2023-05-17T04:39:16.461Z,60.42
2023-05-17T04:41:47.129Z,60.82
2023-05-17T04:44:17.923Z,61.15
2023-05-17T04:46:48.474Z,61.15
2023-05-17T04:49:18.927Z,62.40
2023-05-17T04:51:49.336Z,62.46
2023-05-17T04:54:19.726Z,61.70
2023-05-17T04:56:50.180Z,62.99
2023-05-17T04:59:20.662Z,63.11
2023-05-17T05:01:50.927Z,63.10
2023-05-17T05:04:21.521Z,63.10
2023-05-17T05:06:51.940Z,63.73
2023-05-17T05:09:22.298Z,63.48
2023-05-17T05:11:52.807Z,63.48
2023-05-17T05:14:23.390Z,62.65
2023-05-17T05:16:53.769Z,63.56
2023-05-17T05:19:24.189Z,63.56
2023-05-17T05:21:54.600Z,64.02
2023-05-17T05:24:25.081Z,63.91
2023-05-17T05:26:55.492Z,62.90
2023-05-17T05:29:25.947Z,62.93
2023-05-17T05:31:57.323Z,62.93
2023-05-17T05:34:28.859Z,61.75
2023-05-17T05:36:59.597Z,60.83
2023-05-17T05:39:30.085Z,60.83
2023-05-17T05:42:00.539Z,61.39
2023-05-17T05:44:31.544Z,59.41
2023-05-17T05:47:01.928Z,59.41
2023-05-17T05:49:32.399Z,58.17
2023-05-17T05:52:02.891Z,57.30
2023-05-17T05:54:33.490Z,57.60
2023-05-17T05:57:04.201Z,57.60
2023-05-17T05:59:35.088Z,58.57
2023-05-17T06:02:05.466Z,55.97
2023-05-17T06:04:44.654Z,55.19
2023-05-17T06:07:08.580Z,56.44
2023-05-17T06:09:39.501Z,54.45
2023-05-17T06:12:11.581Z,54.42
2023-05-17T06:14:44.042Z,55.16
2023-05-17T06:17:21.938Z,55.16
2023-05-17T06:19:57.368Z,54.43
2023-05-17T06:22:30.849Z,55.33
2023-05-17T06:25:01.417Z,50.90
2023-05-17T06:27:32.720Z,51.80
2023-05-17T06:30:06.510Z,51.80
2023-05-17T06:32:36.458Z,50.16
2023-05-17T06:35:07.819Z,51.28
2023-05-17T06:37:38.289Z,51.28
2023-05-17T06:40:15.481Z,49.18
2023-05-17T06:42:42.411Z,47.13
2023-05-17T06:45:15.454Z,47.13
2023-05-17T06:47:47.142Z,46.81
2023-05-17T06:50:17.607Z,46.81
2023-05-17T06:52:48.566Z,48.75
2023-05-17T06:55:18.942Z,45.70
2023-05-17T06:57:52.954Z,46.07
2023-05-17T07:00:23.416Z,46.07
2023-05-17T07:02:53.893Z,44.02
2023-05-17T07:05:24.591Z,44.02
2023-05-17T07:07:55.464Z,43.54
2023-05-17T07:10:26.251Z,43.54
2023-05-17T07:12:56.826Z,44.13
2023-05-17T07:15:27.617Z,43.80
2023-05-17T07:17:58.639Z,44.38
2023-05-17T07:20:29.046Z,43.89
2023-05-17T07:23:00.586Z,42.95
2023-05-17T07:25:32.466Z,42.95
2023-05-17T07:28:03.134Z,43.27
2023-05-17T07:30:34.165Z,43.36
2023-05-17T07:33:05.455Z,43.36
2023-05-17T07:35:36.970Z,41.68
2023-05-17T07:38:08.372Z,41.56
2023-05-17T07:40:39.418Z,39.94
2023-05-17T07:43:09.732Z,38.86
2023-05-17T07:45:40.132Z,40.52
2023-05-17T07:48:10.720Z,40.52
2023-05-17T07:50:42.632Z,37.74
2023-05-17T07:53:13.139Z,37.04
2023-05-17T07:55:43.962Z,36.84
2023-05-17T07:58:14.406Z,37.87
2023-05-17T08:00:44.899Z,37.87
2023-05-17T08:03:17.177Z,34.63
2023-05-17T08:05:49.720Z,34.63
2023-05-17T08:08:20.236Z,34.92
2023-05-17T08:10:50.786Z,34.66
2023-05-17T08:13:21.121Z,34.66
2023-05-17T08:15:53.625Z,34.23
2023-05-17T08:18:23.626Z,33.06
2023-05-17T08:20:54.028Z,32.56
2023-05-17T08:23:25.513Z,32.56
2023-05-17T08:26:00.197Z,32.23
2023-05-17T08:28:30.923Z,30.49
2023-05-17T08:31:01.242Z,30.68
2023-05-17T08:33:31.828Z,30.78
2023-05-17T08:36:02.445Z,30.78
2023-05-17T08:38:33.236Z,30.30
2023-05-17T08:41:03.865Z,30.30
2023-05-17T08:43:35.443Z,29.68
2023-05-17T08:46:05.964Z,29.52
2023-05-17T08:48:37.391Z,29.22
2023-05-17T08:51:08.918Z,28.39
2023-05-17T08:53:39.854Z,28.83
2023-05-17T08:56:12.444Z,29.09
2023-05-17T08:58:56.612Z,29.09
2023-05-17T09:01:20.175Z,29.06
2023-05-17T09:03:50.627Z,28.31
2023-05-17T09:06:22.786Z,28.77
2023-05-17T09:08:54.923Z,28.80
2023-05-17T09:11:49.548Z,28.80
2023-05-17T09:14:20.004Z,27.74
2023-05-17T09:16:53.402Z,27.71
2023-05-17T09:19:24.081Z,27.57
2023-05-17T09:22:01.482Z,27.25
2023-05-17T09:24:32.372Z,28.18
2023-05-17T09:27:04.018Z,26.91
2023-05-17T09:29:36.813Z,27.90
2023-05-17T09:32:18.963Z,26.64
2023-05-17T09:34:49.756Z,26.68
2023-05-17T09:37:20.836Z,26.68
2023-05-17T09:39:53.956Z,26.25
2023-05-17T09:42:27.250Z,27.20
2023-05-17T09:44:59.056Z,26.49
2023-05-17T09:47:30.687Z,26.49
2023-05-17T09:50:02.358Z,26.27
2023-05-17T09:52:36.094Z,26.39
2023-05-17T09:55:06.855Z,26.39
2023-05-17T09:57:39.500Z,26.04
2023-05-17T10:00:19.917Z,25.56
2023-05-17T10:02:51.349Z,25.85
2023-05-17T10:05:22.933Z,25.80
2023-05-17T10:07:56.264Z,24.97
2023-05-17T10:10:28.615Z,24.97
2023-05-17T10:13:00.929Z,26.12
2023-05-17T10:15:31.890Z,26.42
2023-05-17T10:18:03.698Z,26.05
2023-05-17T10:23:23.133Z,26.62
2023-05-17T10:25:53.782Z,26.90
2023-05-17T10:28:27.796Z,26.90
2023-05-17T10:30:59.250Z,25.56
2023-05-17T10:33:35.431Z,25.56
2023-05-17T10:36:07.229Z,26.02
2023-05-17T10:38:42.606Z,25.87
2023-05-17T10:41:12.666Z,25.86
2023-05-17T10:43:44.767Z,25.86
2023-05-17T10:46:22.595Z,25.26
2023-05-17T10:48:54.460Z,25.16
2023-05-17T10:51:33.442Z,25.45
2023-05-17T10:54:09.524Z,25.49
2023-05-17T10:56:42.208Z,24.33
2023-05-17T10:59:25.993Z,26.31
2023-05-17T11:02:10.182Z,24.82
2023-05-17T11:04:43.417Z,24.82
2023-05-17T11:07:20.240Z,24.74
2023-05-17T11:09:55.843Z,24.18
2023-05-17T11:12:36.505Z,24.18
2023-05-17T11:15:14.416Z,23.90
2023-05-17T11:17:48.075Z,23.83
2023-05-17T11:20:30.440Z,23.67
2023-05-17T11:23:08.021Z,23.67
2023-05-17T11:25:41.907Z,23.46
2023-05-17T11:28:23.090Z,24.27
2023-05-17T11:30:56.745Z,24.91
2023-05-17T11:33:44.855Z,23.57
2023-05-17T11:36:20.730Z,23.57
2023-05-17T11:39:14.884Z,23.45
2023-05-17T11:41:59.733Z,23.45
2023-05-17T11:44:31.643Z,23.93
2023-05-17T11:47:06.760Z,23.12
2023-05-17T11:49:42.159Z,24.00
2023-05-17T11:52:12.426Z,24.00
2023-05-17T11:54:45.404Z,23.32
2023-05-17T11:57:17.145Z,23.30
2023-05-17T11:59:47.417Z,23.30
2023-05-17T12:02:32.018Z,23.55
2023-05-17T12:05:02.403Z,22.93
2023-05-17T12:07:35.128Z,23.47
2023-05-17T12:10:09.773Z,23.52
2023-05-17T12:12:41.573Z,23.52
2023-05-17T12:15:14.902Z,23.91
2023-05-17T12:17:49.285Z,24.70
2023-05-17T12:20:19.435Z,24.70
2023-05-17T12:22:56.810Z,23.04
2023-05-17T12:25:27.297Z,23.81
2023-05-17T12:28:17.776Z,22.93
2023-05-17T12:30:54.006Z,22.93
2023-05-17T12:33:26.077Z,22.83
2023-05-17T12:35:56.865Z,22.48
2023-05-17T12:38:28.204Z,22.48
2023-05-17T12:41:00.649Z,22.82
2023-05-17T12:43:32.996Z,22.56
2023-05-17T12:46:21.180Z,22.82
2023-05-17T12:48:52.661Z,22.62
2023-05-17T12:51:24.712Z,22.62
2023-05-17T12:53:57.646Z,22.42
2023-05-17T12:56:32.042Z,22.42
2023-05-17T12:59:13.202Z,22.70
2023-05-17T13:01:48.220Z,22.58
2023-05-17T13:04:20.612Z,22.58
2023-05-17T13:06:55.371Z,24.12
2023-05-17T13:09:27.631Z,22.49
2023-05-17T13:11:59.882Z,22.47
2023-05-17T13:14:47.685Z,23.35
2023-05-17T13:17:20.366Z,21.44
2023-05-17T13:19:51.452Z,23.44
2023-05-17T13:22:22.879Z,23.44
2023-05-17T13:24:56.916Z,21.50
2023-05-17T13:27:30.717Z,21.84
2023-05-17T13:30:01.156Z,22.56
2023-05-17T13:32:32.255Z,23.21
2023-05-17T13:35:02.718Z,23.21
2023-05-17T13:37:34.360Z,22.79
2023-05-17T13:40:05.711Z,22.79
2023-05-17T13:42:36.455Z,23.88
2023-05-17T13:45:08.657Z,24.32
2023-05-17T13:47:41.686Z,24.32
2023-05-17T13:50:12.236Z,22.88
2023-05-17T13:52:43.055Z,23.76
2023-05-17T13:55:13.427Z,23.58
2023-05-17T13:57:43.861Z,23.78
2023-05-17T14:00:14.578Z,23.78
2023-05-17T14:02:45.388Z,23.67
2023-05-17T14:05:15.793Z,24.82
2023-05-17T14:07:46.552Z,24.68
2023-05-17T14:10:17.824Z,24.68
2023-05-17T14:12:51.326Z,24.50
2023-05-17T14:15:23.397Z,24.50
2023-05-17T14:17:54.133Z,24.87
2023-05-17T14:20:24.533Z,23.67
2023-05-17T14:22:54.969Z,23.95
2023-05-17T14:25:28.746Z,23.58
2023-05-17T14:28:02.149Z,23.40
2023-05-17T14:30:33.026Z,23.80
2023-05-17T14:33:03.739Z,24.08
2023-05-17T14:35:34.399Z,24.08
2023-05-17T14:38:04.855Z,24.10
2023-05-17T14:40:35.297Z,24.77
2023-05-17T14:43:05.594Z,24.77
2023-05-17T14:45:36.054Z,26.11
2023-05-17T14:48:06.744Z,24.17
2023-05-17T14:50:37.657Z,25.16
2023-05-17T14:53:08.230Z,25.91
2023-05-17T14:55:38.534Z,25.91
2023-05-17T14:58:08.827Z,25.48
2023-05-17T15:00:39.171Z,25.80
2023-05-17T15:03:09.830Z,26.11
2023-05-17T15:05:40.353Z,26.41
2023-05-17T15:08:10.714Z,26.41
2023-05-17T15:10:42.229Z,26.58
2023-05-17T15:13:12.766Z,26.23
2023-05-17T15:15:46.340Z,26.42
2023-05-17T15:18:16.831Z,26.68
2023-05-17T15:20:47.187Z,27.50
2023-05-17T15:23:17.587Z,27.25
2023-05-17T15:25:48.096Z,27.27
2023-05-17T15:28:18.472Z,27.27
2023-05-17T15:30:49.201Z,27.04
2023-05-17T15:33:21.024Z,26.55
2023-05-17T15:35:54.391Z,26.55
2023-05-17T15:38:25.086Z,26.73
2023-05-17T15:41:04.263Z,27.83
2023-05-17T15:43:35.824Z,27.83
2023-05-17T15:46:06.337Z,27.32
2023-05-17T15:48:36.788Z,27.87
2023-05-17T15:51:07.561Z,28.10
2023-05-17T15:53:38.707Z,28.61
2023-05-17T15:56:09.429Z,28.61
2023-05-17T15:58:39.913Z,28.73
2023-05-17T16:01:10.452Z,28.68
2023-05-17T16:03:41.550Z,29.09
2023-05-17T16:06:12.387Z,29.09
2023-05-17T16:08:42.837Z,29.26
2023-05-17T16:11:13.357Z,29.15
2023-05-17T16:13:44.189Z,29.29
2023-05-17T16:16:17.057Z,29.30
2023-05-17T16:18:47.651Z,29.30
2023-05-17T16:21:18.033Z,29.57
2023-05-17T16:23:48.320Z,29.54
2023-05-17T16:26:18.796Z,29.91
2023-05-17T16:28:49.227Z,30.22
2023-05-17T16:31:19.928Z,30.73
2023-05-17T16:33:52.241Z,30.73
2023-05-17T16:36:22.972Z,30.52
2023-05-17T16:38:53.380Z,30.18
2023-05-17T16:41:23.866Z,30.18
2023-05-17T16:43:54.185Z,30.60
2023-05-17T16:46:24.737Z,30.60
2023-05-17T16:48:57.170Z,31.23
2023-05-17T16:51:27.558Z,31.23
2023-05-17T16:54:01.307Z,31.09
2023-05-17T16:56:32.088Z,31.40
2023-05-17T16:59:02.332Z,31.67
2023-05-17T17:01:34.984Z,32.07
2023-05-17T17:04:04.954Z,32.07
2023-05-17T17:06:35.410Z,32.46
2023-05-17T17:09:07.875Z,32.46
2023-05-17T17:11:38.456Z,32.59
2023-05-17T17:14:09.248Z,32.60
2023-05-17T17:16:41.162Z,32.60
2023-05-17T17:19:11.653Z,32.46
2023-05-17T17:21:42.528Z,32.98
2023-05-17T17:24:13.781Z,33.06
2023-05-17T17:26:44.448Z,33.06
2023-05-17T17:29:14.922Z,32.95
2023-05-17T17:31:45.395Z,33.63
2023-05-17T17:34:16.485Z,34.19
2023-05-17T17:37:05.463Z,34.19
2023-05-17T17:39:27.467Z,34.55
2023-05-17T17:42:01.802Z,34.13
2023-05-17T17:44:38.608Z,34.06
2023-05-17T17:47:09.861Z,34.40
2023-05-17T17:49:42.945Z,34.40
2023-05-17T17:52:15.980Z,34.45
2023-05-17T17:54:49.131Z,34.49
2023-05-17T17:57:22.479Z,34.49
2023-05-17T17:59:52.874Z,34.64
2023-05-17T18:02:23.119Z,35.04
2023-05-17T18:04:57.780Z,35.30
2023-05-17T18:07:28.995Z,35.30
2023-05-17T18:09:59.292Z,35.69
2023-05-17T18:12:29.700Z,35.41
2023-05-17T18:15:00.095Z,36.13
2023-05-17T18:17:35.827Z,35.94
2023-05-17T18:20:18.488Z,35.63
2023-05-17T18:22:51.243Z,35.63
2023-05-17T18:25:22.585Z,36.04
2023-05-17T18:27:58.027Z,35.96
2023-05-17T18:30:30.987Z,36.46
2023-05-17T18:33:00.760Z,36.46
2023-05-17T18:35:31.409Z,36.27
2023-05-17T18:38:01.797Z,36.15
2023-05-17T18:40:32.517Z,36.17
2023-05-17T18:43:02.889Z,36.17
2023-05-17T18:45:33.377Z,36.36
2023-05-17T18:48:06.124Z,35.94
2023-05-17T18:50:36.399Z,36.32
2023-05-17T18:53:06.809Z,36.41
2023-05-17T18:55:37.843Z,36.31
2023-05-17T18:58:08.750Z,36.31
2023-05-17T19:00:39.863Z,36.41
2023-05-17T19:03:11.908Z,36.52
2023-05-17T19:05:42.620Z,36.58
2023-05-17T19:08:13.018Z,36.58
2023-05-17T19:10:43.376Z,36.75
2023-05-17T19:13:13.819Z,37.41
2023-05-17T19:15:44.162Z,37.41
2023-05-17T19:18:14.508Z,37.10
2023-05-17T19:20:45.036Z,37.17
2023-05-17T19:23:17.597Z,37.70
2023-05-17T19:25:54.618Z,37.55
2023-05-17T19:28:26.490Z,37.98
2023-05-17T19:31:05.088Z,37.98
2023-05-17T19:33:35.588Z,37.42
2023-05-17T19:36:06.071Z,37.47
2023-05-17T19:38:37.167Z,37.47
2023-05-17T19:41:07.596Z,37.57
2023-05-17T19:43:38.561Z,37.81
2023-05-17T19:46:11.447Z,38.07
2023-05-17T19:48:41.745Z,37.69
2023-05-17T19:51:13.423Z,37.69
2023-05-17T19:53:52.453Z,37.81
2023-05-17T19:56:15.782Z,37.91
2023-05-17T19:58:46.201Z,37.91
2023-05-17T20:01:16.679Z,37.84
2023-05-17T20:03:47.550Z,37.70
2023-05-17T20:06:18.597Z,38.09
2023-05-17T20:08:49.112Z,38.53
2023-05-17T20:11:19.648Z,38.53
2023-05-17T20:13:49.999Z,38.16
2023-05-17T20:16:20.409Z,38.16
2023-05-17T20:18:57.992Z,38.81
2023-05-17T20:21:24.449Z,38.81
2023-05-17T20:23:55.867Z,38.81
2023-05-17T20:26:29.259Z,38.81
2023-05-17T20:28:59.653Z,38.73
2023-05-17T20:31:35.272Z,38.88
2023-05-17T20:34:05.793Z,38.88
2023-05-17T20:36:36.487Z,39.52
2023-05-17T20:39:06.802Z,38.95
2023-05-17T20:41:42.443Z,39.31
2023-05-17T20:44:14.408Z,39.21
2023-05-17T20:46:46.633Z,39.21
2023-05-17T20:49:19.633Z,39.28
2023-05-17T20:51:50.191Z,39.28
2023-05-17T20:54:22.282Z,39.05
2023-05-17T20:56:55.145Z,39.59
2023-05-17T20:59:25.450Z,39.49
2023-05-17T21:01:55.944Z,39.25
2023-05-17T21:04:29.691Z,39.66
2023-05-17T21:07:00.170Z,39.66
2023-05-17T21:09:30.503Z,39.38
2023-05-17T21:12:00.843Z,39.87
2023-05-17T21:14:31.557Z,40.15
2023-05-17T21:17:03.112Z,40.15
2023-05-17T21:19:33.545Z,39.82
2023-05-17T21:22:04.024Z,39.82
2023-05-17T21:24:35.305Z,40.01
2023-05-17T21:27:10.623Z,40.01
2023-05-17T21:29:42.639Z,40.05
2023-05-17T21:32:13.822Z,40.26
2023-05-17T21:34:44.313Z,40.71
2023-05-17T21:37:14.790Z,40.75
2023-05-17T21:39:46.259Z,40.75
2023-05-17T21:42:16.651Z,40.54
2023-05-17T21:44:55.638Z,40.27
2023-05-17T21:47:26.716Z,40.27
2023-05-17T21:49:57.320Z,40.59
2023-05-17T21:52:27.706Z,40.50
2023-05-17T21:54:58.036Z,40.69
2023-05-17T21:57:28.537Z,40.69
2023-05-17T22:00:00.183Z,40.75
2023-05-17T22:02:30.762Z,41.79
2023-05-17T22:05:01.419Z,41.89
2023-05-17T22:07:33.760Z,41.89
2023-05-17T22:10:14.591Z,42.33
2023-05-17T22:12:40.776Z,42.81
2023-05-17T22:15:14.019Z,43.66
2023-05-17T22:17:52.275Z,45.61
2023-05-17T22:20:17.282Z,45.91
2023-05-17T22:22:47.832Z,46.97
2023-05-17T22:25:21.237Z,46.52
2023-05-17T22:27:51.973Z,47.52
2023-05-17T22:30:22.367Z,47.76
2023-05-17T22:32:53.284Z,47.76
2023-05-17T22:35:24.927Z,48.22
2023-05-17T22:37:55.380Z,48.78
2023-05-17T22:40:25.801Z,49.32
2023-05-17T22:42:58.426Z,52.45
2023-05-17T22:45:31.838Z,52.45
2023-05-17T22:48:03.056Z,50.41
2023-05-17T22:50:34.128Z,50.25
2023-05-17T22:53:04.830Z,52.02
2023-05-17T22:55:36.600Z,52.02
2023-05-17T22:58:07.176Z,51.38
2023-05-17T23:00:37.874Z,53.79
2023-05-17T23:03:08.310Z,53.04
2023-05-17T23:05:41.170Z,52.37
2023-05-17T23:08:14.836Z,53.33
2023-05-17T23:10:57.098Z,51.99
2023-05-17T23:13:28.497Z,52.97
2023-05-17T23:16:01.884Z,52.97
2023-05-17T23:18:32.897Z,53.04
2023-05-17T23:21:06.261Z,52.50
2023-05-17T23:23:38.254Z,53.12
2023-05-17T23:26:08.572Z,53.12
2023-05-17T23:28:39.071Z,51.86
2023-05-17T23:31:09.677Z,51.86
2023-05-17T23:33:43.183Z,52.33
2023-05-17T23:36:15.159Z,52.33
2023-05-17T23:38:45.880Z,52.24
2023-05-17T23:41:16.531Z,52.24
2023-05-17T23:43:47.029Z,52.83
2023-05-17T23:46:17.537Z,52.78
2023-05-17T23:48:48.073Z,52.84
2023-05-17T23:51:20.273Z,51.74
2023-05-17T23:53:50.948Z,52.92
2023-05-17T23:56:21.327Z,51.74
2023-05-17T23:58:53.514Z,51.74
